sensor_id;sensor_type;location;lat;lon;timestamp;P1;durP1;ratioP1;P2;durP2;ratioP2
36411;SDS011;22445;52.100;5.176;2023-04-01T00:00:28;0.68;;;0.52;;
36411;SDS011;22445;52.100;5.176;2023-04-01T00:02:54;0.20;;;0.10;;
36411;SDS011;22445;52.100;5.176;2023-04-01T00:05:19;0.00;;;0.00;;
36411;SDS011;22445;52.100;5.176;2023-04-01T00:07:45;0.35;;;0.30;;
36411;SDS011;22445;52.100;5.176;2023-04-01T00:10:11;0.00;;;0.00;;
36411;SDS011;22445;52.100;5.176;2023-04-01T00:12:38;0.00;;;0.00;;
36411;SDS011;22445;52.100;5.176;2023-04-01T00:15:04;0.00;;;0.00;;
36411;SDS011;22445;52.100;5.176;2023-04-01T00:17:31;0.00;;;0.00;;
36411;SDS011;22445;52.100;5.176;2023-04-01T00:19:57;0.22;;;0.15;;
36411;SDS011;22445;52.100;5.176;2023-04-01T00:22:23;0.00;;;0.00;;
36411;SDS011;22445;52.100;5.176;2023-04-01T00:24:49;0.52;;;0.20;;
36411;SDS011;22445;52.100;5.176;2023-04-01T00:27:15;0.10;;;0.10;;
36411;SDS011;22445;52.100;5.176;2023-04-01T00:29:44;0.80;;;0.80;;
36411;SDS011;22445;52.100;5.176;2023-04-01T00:32:11;0.00;;;0.00;;
36411;SDS011;22445;52.100;5.176;2023-04-01T00:34:37;0.35;;;0.35;;
36411;SDS011;22445;52.100;5.176;2023-04-01T00:37:02;0.20;;;0.08;;
36411;SDS011;22445;52.100;5.176;2023-04-01T00:39:29;0.00;;;0.00;;
36411;SDS011;22445;52.100;5.176;2023-04-01T00:41:56;2.53;;;1.13;;
36411;SDS011;22445;52.100;5.176;2023-04-01T00:44:23;0.00;;;0.00;;
36411;SDS011;22445;52.100;5.176;2023-04-01T00:46:50;0.00;;;0.00;;
36411;SDS011;22445;52.100;5.176;2023-04-01T00:49:18;0.10;;;0.05;;
36411;SDS011;22445;52.100;5.176;2023-04-01T00:51:47;0.00;;;0.00;;
36411;SDS011;22445;52.100;5.176;2023-04-01T00:54:14;0.00;;;0.00;;
36411;SDS011;22445;52.100;5.176;2023-04-01T00:56:43;0.00;;;0.00;;
36411;SDS011;22445;52.100;5.176;2023-04-01T00:59:14;4.18;;;0.45;;
36411;SDS011;22445;52.100;5.176;2023-04-01T01:01:42;0.03;;;0.00;;
36411;SDS011;22445;52.100;5.176;2023-04-01T01:04:20;2.80;;;1.45;;
36411;SDS011;22445;52.100;5.176;2023-04-01T01:06:51;0.00;;;0.00;;
36411;SDS011;22445;52.100;5.176;2023-04-01T01:09:45;0.05;;;0.05;;
36411;SDS011;22445;52.100;5.176;2023-04-01T01:24:28;0.30;;;0.28;;
36411;SDS011;22445;52.100;5.176;2023-04-01T01:27:18;0.00;;;0.00;;
36411;SDS011;22445;52.100;5.176;2023-04-01T01:36:00;0.00;;;0.00;;
36411;SDS011;22445;52.100;5.176;2023-04-01T01:38:28;0.00;;;0.00;;
36411;SDS011;22445;52.100;5.176;2023-04-01T01:40:56;0.00;;;0.00;;
36411;SDS011;22445;52.100;5.176;2023-04-01T01:43:26;0.00;;;0.00;;
36411;SDS011;22445;52.100;5.176;2023-04-01T01:45:57;0.10;;;0.10;;
36411;SDS011;22445;52.100;5.176;2023-04-01T01:48:24;0.00;;;0.00;;
36411;SDS011;22445;52.100;5.176;2023-04-01T01:50:50;0.00;;;0.00;;
36411;SDS011;22445;52.100;5.176;2023-04-01T01:53:16;0.00;;;0.00;;
36411;SDS011;22445;52.100;5.176;2023-04-01T01:55:45;0.00;;;0.00;;
36411;SDS011;22445;52.100;5.176;2023-04-01T02:01:12;0.32;;;0.22;;
36411;SDS011;22445;52.100;5.176;2023-04-01T02:03:43;0.00;;;0.00;;
36411;SDS011;22445;52.100;5.176;2023-04-01T02:06:10;0.00;;;0.00;;
36411;SDS011;22445;52.100;5.176;2023-04-01T02:08:43;1.33;;;0.93;;
36411;SDS011;22445;52.100;5.176;2023-04-01T02:11:15;0.00;;;0.00;;
36411;SDS011;22445;52.100;5.176;2023-04-01T02:13:44;0.00;;;0.00;;
36411;SDS011;22445;52.100;5.176;2023-04-01T02:16:15;0.00;;;0.00;;
36411;SDS011;22445;52.100;5.176;2023-04-01T02:18:47;0.00;;;0.00;;
36411;SDS011;22445;52.100;5.176;2023-04-01T02:21:14;0.00;;;0.00;;
36411;SDS011;22445;52.100;5.176;2023-04-01T02:23:40;0.00;;;0.00;;
36411;SDS011;22445;52.100;5.176;2023-04-01T02:26:06;0.00;;;0.00;;
36411;SDS011;22445;52.100;5.176;2023-04-01T02:28:33;0.30;;;0.30;;
36411;SDS011;22445;52.100;5.176;2023-04-01T02:30:59;0.00;;;0.00;;
36411;SDS011;22445;52.100;5.176;2023-04-01T02:33:27;0.00;;;0.00;;
36411;SDS011;22445;52.100;5.176;2023-04-01T02:35:53;0.10;;;0.10;;
36411;SDS011;22445;52.100;5.176;2023-04-01T02:38:19;0.00;;;0.00;;
36411;SDS011;22445;52.100;5.176;2023-04-01T02:40:49;0.00;;;0.00;;
36411;SDS011;22445;52.100;5.176;2023-04-01T02:43:16;0.40;;;0.32;;
36411;SDS011;22445;52.100;5.176;2023-04-01T02:45:44;3.40;;;0.57;;
36411;SDS011;22445;52.100;5.176;2023-04-01T02:48:09;0.00;;;0.00;;
36411;SDS011;22445;52.100;5.176;2023-04-01T02:50:35;0.00;;;0.00;;
36411;SDS011;22445;52.100;5.176;2023-04-01T02:53:01;0.00;;;0.00;;
36411;SDS011;22445;52.100;5.176;2023-04-01T02:55:28;0.00;;;0.00;;
36411;SDS011;22445;52.100;5.176;2023-04-01T02:57:55;0.00;;;0.00;;
36411;SDS011;22445;52.100;5.176;2023-04-01T03:00:21;0.00;;;0.00;;
36411;SDS011;22445;52.100;5.176;2023-04-01T03:02:46;0.00;;;0.00;;
36411;SDS011;22445;52.100;5.176;2023-04-01T03:05:12;0.40;;;0.40;;
36411;SDS011;22445;52.100;5.176;2023-04-01T03:07:38;0.35;;;0.28;;
36411;SDS011;22445;52.100;5.176;2023-04-01T03:10:04;0.00;;;0.00;;
36411;SDS011;22445;52.100;5.176;2023-04-01T03:12:30;0.00;;;0.00;;
36411;SDS011;22445;52.100;5.176;2023-04-01T03:14:56;0.00;;;0.00;;
36411;SDS011;22445;52.100;5.176;2023-04-01T03:17:22;0.00;;;0.00;;
36411;SDS011;22445;52.100;5.176;2023-04-01T03:19:47;0.00;;;0.00;;
36411;SDS011;22445;52.100;5.176;2023-04-01T03:22:13;0.00;;;0.00;;
36411;SDS011;22445;52.100;5.176;2023-04-01T03:24:38;0.00;;;0.00;;
36411;SDS011;22445;52.100;5.176;2023-04-01T03:27:04;0.00;;;0.00;;
36411;SDS011;22445;52.100;5.176;2023-04-01T03:29:29;0.00;;;0.00;;
36411;SDS011;22445;52.100;5.176;2023-04-01T03:31:55;0.00;;;0.00;;
36411;SDS011;22445;52.100;5.176;2023-04-01T03:34:23;0.00;;;0.00;;
36411;SDS011;22445;52.100;5.176;2023-04-01T03:36:49;0.00;;;0.00;;
36411;SDS011;22445;52.100;5.176;2023-04-01T03:39:16;0.00;;;0.00;;
36411;SDS011;22445;52.100;5.176;2023-04-01T03:41:44;1.08;;;0.85;;
36411;SDS011;22445;52.100;5.176;2023-04-01T03:44:10;0.00;;;0.00;;
36411;SDS011;22445;52.100;5.176;2023-04-01T03:46:35;0.00;;;0.00;;
36411;SDS011;22445;52.100;5.176;2023-04-01T03:49:01;0.00;;;0.00;;
36411;SDS011;22445;52.100;5.176;2023-04-01T03:51:27;0.00;;;0.00;;
36411;SDS011;22445;52.100;5.176;2023-04-01T03:53:53;0.00;;;0.00;;
36411;SDS011;22445;52.100;5.176;2023-04-01T03:56:21;0.00;;;0.00;;
36411;SDS011;22445;52.100;5.176;2023-04-01T03:58:47;0.00;;;0.00;;
36411;SDS011;22445;52.100;5.176;2023-04-01T04:01:16;0.00;;;0.00;;
36411;SDS011;22445;52.100;5.176;2023-04-01T04:03:43;0.00;;;0.00;;
36411;SDS011;22445;52.100;5.176;2023-04-01T04:06:12;0.00;;;0.00;;
36411;SDS011;22445;52.100;5.176;2023-04-01T04:08:38;1.45;;;0.38;;
36411;SDS011;22445;52.100;5.176;2023-04-01T04:11:03;0.00;;;0.00;;
36411;SDS011;22445;52.100;5.176;2023-04-01T04:13:29;0.00;;;0.00;;
36411;SDS011;22445;52.100;5.176;2023-04-01T04:15:54;0.00;;;0.00;;
36411;SDS011;22445;52.100;5.176;2023-04-01T04:18:20;0.00;;;0.00;;
36411;SDS011;22445;52.100;5.176;2023-04-01T04:20:45;0.00;;;0.00;;
36411;SDS011;22445;52.100;5.176;2023-04-01T04:23:13;0.00;;;0.00;;
36411;SDS011;22445;52.100;5.176;2023-04-01T04:25:39;0.00;;;0.00;;
36411;SDS011;22445;52.100;5.176;2023-04-01T04:28:04;0.00;;;0.00;;
36411;SDS011;22445;52.100;5.176;2023-04-01T04:30:30;0.00;;;0.00;;
36411;SDS011;22445;52.100;5.176;2023-04-01T04:32:56;0.00;;;0.00;;
36411;SDS011;22445;52.100;5.176;2023-04-01T04:35:21;0.00;;;0.00;;
36411;SDS011;22445;52.100;5.176;2023-04-01T04:37:47;0.00;;;0.00;;
36411;SDS011;22445;52.100;5.176;2023-04-01T04:40:12;0.00;;;0.00;;
36411;SDS011;22445;52.100;5.176;2023-04-01T04:42:38;0.45;;;0.45;;
36411;SDS011;22445;52.100;5.176;2023-04-01T04:45:03;0.00;;;0.00;;
36411;SDS011;22445;52.100;5.176;2023-04-01T04:47:29;0.00;;;0.00;;
36411;SDS011;22445;52.100;5.176;2023-04-01T04:49:55;0.00;;;0.00;;
36411;SDS011;22445;52.100;5.176;2023-04-01T04:52:20;0.00;;;0.00;;
36411;SDS011;22445;52.100;5.176;2023-04-01T04:54:46;0.00;;;0.00;;
36411;SDS011;22445;52.100;5.176;2023-04-01T04:57:11;0.00;;;0.00;;
36411;SDS011;22445;52.100;5.176;2023-04-01T04:59:37;0.00;;;0.00;;
36411;SDS011;22445;52.100;5.176;2023-04-01T05:02:02;0.00;;;0.00;;
36411;SDS011;22445;52.100;5.176;2023-04-01T05:04:28;0.00;;;0.00;;
36411;SDS011;22445;52.100;5.176;2023-04-01T05:06:54;0.00;;;0.00;;
36411;SDS011;22445;52.100;5.176;2023-04-01T05:09:20;0.00;;;0.00;;
36411;SDS011;22445;52.100;5.176;2023-04-01T05:11:45;0.10;;;0.10;;
36411;SDS011;22445;52.100;5.176;2023-04-01T05:14:17;0.00;;;0.00;;
36411;SDS011;22445;52.100;5.176;2023-04-01T05:16:42;1.55;;;0.75;;
36411;SDS011;22445;52.100;5.176;2023-04-01T05:19:08;0.00;;;0.00;;
36411;SDS011;22445;52.100;5.176;2023-04-01T05:21:34;0.00;;;0.00;;
36411;SDS011;22445;52.100;5.176;2023-04-01T05:23:59;0.00;;;0.00;;
36411;SDS011;22445;52.100;5.176;2023-04-01T05:26:25;0.00;;;0.00;;
36411;SDS011;22445;52.100;5.176;2023-04-01T05:28:50;0.00;;;0.00;;
36411;SDS011;22445;52.100;5.176;2023-04-01T05:31:16;0.00;;;0.00;;
36411;SDS011;22445;52.100;5.176;2023-04-01T05:33:42;0.00;;;0.00;;
36411;SDS011;22445;52.100;5.176;2023-04-01T05:36:08;0.00;;;0.00;;
36411;SDS011;22445;52.100;5.176;2023-04-01T05:38:37;0.00;;;0.00;;
36411;SDS011;22445;52.100;5.176;2023-04-01T05:41:03;0.00;;;0.00;;
36411;SDS011;22445;52.100;5.176;2023-04-01T05:43:29;0.00;;;0.00;;
36411;SDS011;22445;52.100;5.176;2023-04-01T05:45:55;0.00;;;0.00;;
36411;SDS011;22445;52.100;5.176;2023-04-01T05:48:21;0.00;;;0.00;;
36411;SDS011;22445;52.100;5.176;2023-04-01T05:50:46;0.00;;;0.00;;
36411;SDS011;22445;52.100;5.176;2023-04-01T05:53:12;0.00;;;0.00;;
36411;SDS011;22445;52.100;5.176;2023-04-01T05:55:37;0.00;;;0.00;;
36411;SDS011;22445;52.100;5.176;2023-04-01T05:58:03;0.00;;;0.00;;
36411;SDS011;22445;52.100;5.176;2023-04-01T06:00:28;0.00;;;0.00;;
36411;SDS011;22445;52.100;5.176;2023-04-01T06:02:54;0.40;;;0.20;;
36411;SDS011;22445;52.100;5.176;2023-04-01T06:05:24;0.00;;;0.00;;
36411;SDS011;22445;52.100;5.176;2023-04-01T06:07:55;0.00;;;0.00;;
36411;SDS011;22445;52.100;5.176;2023-04-01T06:10:25;0.00;;;0.00;;
36411;SDS011;22445;52.100;5.176;2023-04-01T06:16:36;0.00;;;0.00;;
36411;SDS011;22445;52.100;5.176;2023-04-01T06:19:15;0.00;;;0.00;;
36411;SDS011;22445;52.100;5.176;2023-04-01T06:34:16;0.00;;;0.00;;
36411;SDS011;22445;52.100;5.176;2023-04-01T06:43:46;0.00;;;0.00;;
36411;SDS011;22445;52.100;5.176;2023-04-01T06:55:59;0.00;;;0.00;;
36411;SDS011;22445;52.100;5.176;2023-04-01T06:58:29;0.00;;;0.00;;
36411;SDS011;22445;52.100;5.176;2023-04-01T07:01:01;0.00;;;0.00;;
36411;SDS011;22445;52.100;5.176;2023-04-01T07:03:30;0.00;;;0.00;;
36411;SDS011;22445;52.100;5.176;2023-04-01T07:06:25;0.00;;;0.00;;
36411;SDS011;22445;52.100;5.176;2023-04-01T07:09:14;0.00;;;0.00;;
36411;SDS011;22445;52.100;5.176;2023-04-01T07:11:42;0.00;;;0.00;;
36411;SDS011;22445;52.100;5.176;2023-04-01T07:19:58;0.00;;;0.00;;
36411;SDS011;22445;52.100;5.176;2023-04-01T07:22:35;0.00;;;0.00;;
36411;SDS011;22445;52.100;5.176;2023-04-01T07:28:03;0.00;;;0.00;;
36411;SDS011;22445;52.100;5.176;2023-04-01T07:30:41;0.00;;;0.00;;
36411;SDS011;22445;52.100;5.176;2023-04-01T07:33:30;0.00;;;0.00;;
36411;SDS011;22445;52.100;5.176;2023-04-01T07:38:59;0.00;;;0.00;;
36411;SDS011;22445;52.100;5.176;2023-04-01T07:42:02;0.00;;;0.00;;
36411;SDS011;22445;52.100;5.176;2023-04-01T07:51:21;0.00;;;0.00;;
36411;SDS011;22445;52.100;5.176;2023-04-01T07:57:19;0.00;;;0.00;;
36411;SDS011;22445;52.100;5.176;2023-04-01T08:06:24;0.00;;;0.00;;
36411;SDS011;22445;52.100;5.176;2023-04-01T08:09:02;0.75;;;0.52;;
36411;SDS011;22445;52.100;5.176;2023-04-01T08:29:04;0.13;;;0.13;;
36411;SDS011;22445;52.100;5.176;2023-04-01T08:31:48;0.00;;;0.00;;
36411;SDS011;22445;52.100;5.176;2023-04-01T08:34:42;0.00;;;0.00;;
36411;SDS011;22445;52.100;5.176;2023-04-01T08:37:14;0.00;;;0.00;;
36411;SDS011;22445;52.100;5.176;2023-04-01T08:44:36;0.10;;;0.10;;
36411;SDS011;22445;52.100;5.176;2023-04-01T08:55:31;0.00;;;0.00;;
36411;SDS011;22445;52.100;5.176;2023-04-01T09:01:39;0.00;;;0.00;;
36411;SDS011;22445;52.100;5.176;2023-04-01T09:27:10;0.00;;;0.00;;
36411;SDS011;22445;52.100;5.176;2023-04-01T09:33:08;0.00;;;0.00;;
36411;SDS011;22445;52.100;5.176;2023-04-01T09:42:07;0.00;;;0.00;;
36411;SDS011;22445;52.100;5.176;2023-04-01T09:51:09;0.00;;;0.00;;
36411;SDS011;22445;52.100;5.176;2023-04-01T09:54:01;0.10;;;0.10;;
36411;SDS011;22445;52.100;5.176;2023-04-01T09:56:59;0.00;;;0.00;;
36411;SDS011;22445;52.100;5.176;2023-04-01T10:35:53;0.00;;;0.00;;
36411;SDS011;22445;52.100;5.176;2023-04-01T11:05:19;0.00;;;0.00;;
36411;SDS011;22445;52.100;5.176;2023-04-01T11:23:28;0.00;;;0.00;;
36411;SDS011;22445;52.100;5.176;2023-04-01T11:26:28;0.00;;;0.00;;
36411;SDS011;22445;52.100;5.176;2023-04-01T11:32:52;0.00;;;0.00;;
36411;SDS011;22445;52.100;5.176;2023-04-01T11:35:25;0.00;;;0.00;;
36411;SDS011;22445;52.100;5.176;2023-04-01T11:38:02;0.00;;;0.00;;
36411;SDS011;22445;52.100;5.176;2023-04-01T12:10:19;0.00;;;0.00;;
36411;SDS011;22445;52.100;5.176;2023-04-01T12:16:20;0.00;;;0.00;;
36411;SDS011;22445;52.100;5.176;2023-04-01T12:22:19;0.00;;;0.00;;
36411;SDS011;22445;52.100;5.176;2023-04-01T12:34:24;0.00;;;0.00;;
36411;SDS011;22445;52.100;5.176;2023-04-01T12:55:51;0.00;;;0.00;;
36411;SDS011;22445;52.100;5.176;2023-04-01T13:33:27;0.00;;;0.00;;
36411;SDS011;22445;52.100;5.176;2023-04-01T13:36:32;0.00;;;0.00;;
36411;SDS011;22445;52.100;5.176;2023-04-01T13:39:27;0.00;;;0.00;;
36411;SDS011;22445;52.100;5.176;2023-04-01T13:45:15;0.00;;;0.00;;
36411;SDS011;22445;52.100;5.176;2023-04-01T13:47:57;0.00;;;0.00;;
36411;SDS011;22445;52.100;5.176;2023-04-01T13:53:59;0.00;;;0.00;;
36411;SDS011;22445;52.100;5.176;2023-04-01T13:56:34;0.00;;;0.00;;
36411;SDS011;22445;52.100;5.176;2023-04-01T14:05:56;0.00;;;0.00;;
36411;SDS011;22445;52.100;5.176;2023-04-01T14:12:00;0.00;;;0.00;;
36411;SDS011;22445;52.100;5.176;2023-04-01T14:14:47;0.00;;;0.00;;
36411;SDS011;22445;52.100;5.176;2023-04-01T14:26:59;0.00;;;0.00;;
36411;SDS011;22445;52.100;5.176;2023-04-01T14:29:57;0.00;;;0.00;;
36411;SDS011;22445;52.100;5.176;2023-04-01T14:32:49;0.00;;;0.00;;
36411;SDS011;22445;52.100;5.176;2023-04-01T14:55:52;0.00;;;0.00;;
36411;SDS011;22445;52.100;5.176;2023-04-01T14:58:21;0.00;;;0.00;;
36411;SDS011;22445;52.100;5.176;2023-04-01T15:14:56;0.00;;;0.00;;
36411;SDS011;22445;52.100;5.176;2023-04-01T15:46:09;0.00;;;0.00;;
36411;SDS011;22445;52.100;5.176;2023-04-01T15:57:56;0.00;;;0.00;;
36411;SDS011;22445;52.100;5.176;2023-04-01T16:21:45;0.00;;;0.00;;
36411;SDS011;22445;52.100;5.176;2023-04-01T16:27:45;0.00;;;0.00;;
36411;SDS011;22445;52.100;5.176;2023-04-01T16:30:25;0.00;;;0.00;;
36411;SDS011;22445;52.100;5.176;2023-04-01T16:48:20;0.00;;;0.00;;
36411;SDS011;22445;52.100;5.176;2023-04-01T16:51:09;0.00;;;0.00;;
36411;SDS011;22445;52.100;5.176;2023-04-01T16:53:42;0.00;;;0.00;;
36411;SDS011;22445;52.100;5.176;2023-04-01T16:56:13;0.00;;;0.00;;
36411;SDS011;22445;52.100;5.176;2023-04-01T17:04:57;0.00;;;0.00;;
36411;SDS011;22445;52.100;5.176;2023-04-01T17:23:12;0.70;;;0.32;;
36411;SDS011;22445;52.100;5.176;2023-04-01T17:26:03;0.00;;;0.00;;
36411;SDS011;22445;52.100;5.176;2023-04-01T17:28:41;0.00;;;0.00;;
36411;SDS011;22445;52.100;5.176;2023-04-01T17:38:13;1.25;;;1.15;;
36411;SDS011;22445;52.100;5.176;2023-04-01T17:44:29;0.30;;;0.30;;
36411;SDS011;22445;52.100;5.176;2023-04-01T17:47:32;0.00;;;0.00;;
36411;SDS011;22445;52.100;5.176;2023-04-01T17:53:57;0.00;;;0.00;;
36411;SDS011;22445;52.100;5.176;2023-04-01T18:00:14;0.00;;;0.00;;
36411;SDS011;22445;52.100;5.176;2023-04-01T18:02:55;0.00;;;0.00;;
36411;SDS011;22445;52.100;5.176;2023-04-01T18:21:01;0.03;;;0.03;;
36411;SDS011;22445;52.100;5.176;2023-04-01T18:29:59;0.00;;;0.00;;
36411;SDS011;22445;52.100;5.176;2023-04-01T18:38:38;0.00;;;0.00;;
36411;SDS011;22445;52.100;5.176;2023-04-01T18:41:13;0.00;;;0.00;;
36411;SDS011;22445;52.100;5.176;2023-04-01T18:46:48;0.00;;;0.00;;
36411;SDS011;22445;52.100;5.176;2023-04-01T18:49:21;1.55;;;0.63;;
36411;SDS011;22445;52.100;5.176;2023-04-01T18:52:09;0.00;;;0.00;;
36411;SDS011;22445;52.100;5.176;2023-04-01T18:54:43;0.00;;;0.00;;
36411;SDS011;22445;52.100;5.176;2023-04-01T18:57:15;0.00;;;0.00;;
36411;SDS011;22445;52.100;5.176;2023-04-01T18:59:42;0.30;;;0.30;;
36411;SDS011;22445;52.100;5.176;2023-04-01T19:02:25;0.43;;;0.43;;
36411;SDS011;22445;52.100;5.176;2023-04-01T19:17:10;0.00;;;0.00;;
36411;SDS011;22445;52.100;5.176;2023-04-01T19:26:40;0.00;;;0.00;;
36411;SDS011;22445;52.100;5.176;2023-04-01T19:36:00;0.00;;;0.00;;
36411;SDS011;22445;52.100;5.176;2023-04-01T19:45:14;0.20;;;0.20;;
36411;SDS011;22445;52.100;5.176;2023-04-01T20:00:36;1.27;;;1.17;;
36411;SDS011;22445;52.100;5.176;2023-04-01T20:15:41;0.00;;;0.00;;
36411;SDS011;22445;52.100;5.176;2023-04-01T20:24:14;15.98;;;9.63;;
36411;SDS011;22445;52.100;5.176;2023-04-01T20:26:44;14.65;;;10.27;;
36411;SDS011;22445;52.100;5.176;2023-04-01T20:45:14;13.18;;;9.65;;
36411;SDS011;22445;52.100;5.176;2023-04-01T20:48:22;15.05;;;10.65;;
36411;SDS011;22445;52.100;5.176;2023-04-01T20:51:38;1.42;;;1.20;;
36411;SDS011;22445;52.100;5.176;2023-04-01T20:54:11;15.70;;;10.48;;
36411;SDS011;22445;52.100;5.176;2023-04-01T21:08:12;9.23;;;6.45;;
36411;SDS011;22445;52.100;5.176;2023-04-01T21:11:01;18.05;;;10.02;;
36411;SDS011;22445;52.100;5.176;2023-04-01T21:32:40;10.35;;;7.57;;
36411;SDS011;22445;52.100;5.176;2023-04-01T22:43:06;14.15;;;9.77;;
36411;SDS011;22445;52.100;5.176;2023-04-01T22:48:37;15.10;;;9.80;;
36411;SDS011;22445;52.100;5.176;2023-04-01T22:57:28;13.98;;;9.88;;
36411;SDS011;22445;52.100;5.176;2023-04-01T23:00:52;14.70;;;10.27;;
36411;SDS011;22445;52.100;5.176;2023-04-01T23:03:28;17.65;;;10.52;;
36411;SDS011;22445;52.100;5.176;2023-04-01T23:05:56;20.13;;;11.82;;
36411;SDS011;22445;52.100;5.176;2023-04-01T23:11:44;17.80;;;11.50;;
36411;SDS011;22445;52.100;5.176;2023-04-01T23:17:24;17.73;;;11.35;;
36411;SDS011;22445;52.100;5.176;2023-04-01T23:29:27;17.10;;;10.93;;
36411;SDS011;22445;52.100;5.176;2023-04-01T23:32:00;19.90;;;12.07;;
36411;SDS011;22445;52.100;5.176;2023-04-01T23:34:33;20.33;;;13.02;;
36411;SDS011;22445;52.100;5.176;2023-04-01T23:37:04;16.92;;;11.65;;
36411;SDS011;22445;52.100;5.176;2023-04-01T23:39:34;18.70;;;11.98;;
36411;SDS011;22445;52.100;5.176;2023-04-01T23:44:56;19.60;;;12.02;;
36411;SDS011;22445;52.100;5.176;2023-04-01T23:47:24;17.73;;;12.30;;
36411;SDS011;22445;52.100;5.176;2023-04-01T23:52:59;16.27;;;12.48;;
36411;SDS011;22445;52.100;5.176;2023-04-01T23:55:28;19.25;;;12.63;;
